Observation data for Knox City on 10/13/2019      Previous  Date  Next       Current Mesonet Observations  Soil Data  Daily Summary Page  Observations in Plain Language
KKN1 130500Z 16007KT 14/M02 A30 RMK A01 T01361022  RH  034%=      5-min Rain = 0
KKN1 130505Z 16006KT 13/M02 A30 RMK A01 T01341022  RH  034%=      5-min Rain = 0
KKN1 130510Z 16006KT 13/M02 A30 RMK A01 T01321022  RH  035%=      5-min Rain = 0
KKN1 130515Z 16006KT 13/M02 A2999 RMK A01 T01321020  RH  035%=      5-min Rain = 0
KKN1 130520Z 16006KT 13/M02 A2999 RMK A01 T01321019  RH  036%=      5-min Rain = 0
KKN1 130525Z 17008KT 13/M02 A2999 RMK A01 T01331018  RH  035%=      5-min Rain = 0
KKN1 130530Z 17008KT 14/M02 A2998 RMK A01 T01361018  RH  035%=      5-min Rain = 0
KKN1 130535Z 17007KT 14/M02 A2998 RMK A01 T01371018  RH  035%=      5-min Rain = 0
KKN1 130540Z 17007KT 14/M02 A2998 RMK A01 T01381017  RH  035%=      5-min Rain = 0
KKN1 130545Z 17009KT 14/M02 A2998 RMK A01 T01401016  RH  034%=      5-min Rain = 0
KKN1 130550Z 17010KT 14/M02 A2997 RMK A01 T01411017  RH  034%=      5-min Rain = 0
KKN1 130555Z 17009KT 14/M02 A2997 RMK A01 T01411016  RH  034%=      5-min Rain = 0
KKN1 130600Z 17010KT 14/M02 A2997 RMK A01 T01391016  RH  035%=      5-min Rain = 0
KKN1 130605Z 17010KT 14/M02 A2997 RMK A01 T01371016  RH  035%=      5-min Rain = 0
KKN1 130610Z 17010KT 14/M02 A2997 RMK A01 T01351015  RH  036%=      5-min Rain = 0
KKN1 130615Z 17010KT 13/M02 A2997 RMK A01 T01331015  RH  036%=      5-min Rain = 0
KKN1 130620Z 17010KT 13/M01 A2997 RMK A01 T01321014  RH  037%=      5-min Rain = 0
KKN1 130625Z 17010KT 13/M01 A2996 RMK A01 T01321013  RH  037%=      5-min Rain = 0
KKN1 130630Z 17010KT 13/M01 A2996 RMK A01 T01311013  RH  037%=      5-min Rain = 0
KKN1 130635Z 17009KT 13/M01 A2997 RMK A01 T01311012  RH  038%=      5-min Rain = 0
KKN1 130640Z 17009KT 13/M01 A2997 RMK A01 T01311012  RH  038%=      5-min Rain = 0
KKN1 130645Z 17008KT 13/M01 A2997 RMK A01 T01291011  RH  038%=      5-min Rain = 0
KKN1 130650Z 17008KT 13/M01 A2997 RMK A01 T01271010  RH  039%=      5-min Rain = 0
KKN1 130655Z 18008KT 13/M01 A2996 RMK A01 T01261009  RH  040%=      5-min Rain = 0
KKN1 130700Z 18008KT 13/M01 A2997 RMK A01 T01251008  RH  040%=      5-min Rain = 0
KKN1 130705Z 18007KT 13/M01 A2997 RMK A01 T01251009  RH  040%=      5-min Rain = 0
KKN1 130710Z 19004KT 13/M01 A2997 RMK A01 T01251009  RH  040%=      5-min Rain = 0
KKN1 130715Z 20005KT 12/M01 A2997 RMK A01 T01241009  RH  040%=      5-min Rain = 0
KKN1 130720Z 19006KT 12/M01 A2997 RMK A01 T01221009  RH  041%=      5-min Rain = 0
KKN1 130725Z 21004KT 12/M01 A2998 RMK A01 T01201006  RH  042%=      5-min Rain = 0
KKN1 130730Z 21003KT 12/M01 A2998 RMK A01 T01201006  RH  042%=      5-min Rain = 0
KKN1 130735Z 21003KT 12/M01 A2998 RMK A01 T01211007  RH  042%=      5-min Rain = 0
KKN1 130740Z 21002KT 12/M01 A2998 RMK A01 T01191007  RH  042%=      5-min Rain = 0
KKN1 130745Z 29002KT 11/M01 A2998 RMK A01 T01081008  RH  045%=      5-min Rain = 0
KKN1 130750Z 34001KT 10/M01 A2998 RMK A01 T01041008  RH  046%=      5-min Rain = 0
KKN1 130755Z 35004KT 10/M01 A2998 RMK A01 T01011006  RH  048%=      5-min Rain = 0
KKN1 130800Z 35002KT 10/M01 A2998 RMK A01 T01001006  RH  048%=      5-min Rain = 0
KKN1 130805Z 01001KT 10/M01 A2998 RMK A01 T01031006  RH  047%=      5-min Rain = 0
KKN1 130810Z 01001KT 10/M01 A2998 RMK A01 T01041005  RH  047%=      5-min Rain = 0
KKN1 130815Z 10001KT 11/M01 A2998 RMK A01 T01061005  RH  046%=      5-min Rain = 0
KKN1 130820Z 01002KT 10/M00 A2998 RMK A01 T01021004  RH  048%=      5-min Rain = 0
KKN1 130825Z 09001KT 10/M01 A2998 RMK A01 T01001005  RH  049%=      5-min Rain = 0
KKN1 130830Z 12002KT 10/M01 A2998 RMK A01 T01011010  RH  046%=      5-min Rain = 0
KKN1 130835Z 11002KT 10/M01 A2998 RMK A01 T00951007  RH  049%=      5-min Rain = 0
KKN1 130840Z 13003KT 09/M01 A2998 RMK A01 T00911013  RH  049%=      5-min Rain = 0
KKN1 130845Z 14002KT 09/M01 A2998 RMK A01 T00881013  RH  049%=      5-min Rain = 0
KKN1 130850Z 14003KT 09/M01 A2998 RMK A01 T00901007  RH  051%=      5-min Rain = 0
KKN1 130855Z 14003KT 09/M01 A2998 RMK A01 T00871010  RH  051%=      5-min Rain = 0
KKN1 130900Z 14005KT 09/M01 A2998 RMK A01 T00871011  RH  051%=      5-min Rain = 0
KKN1 130905Z 16007KT 09/M01 A2998 RMK A01 T00901008  RH  051%=      5-min Rain = 0
KKN1 130910Z 16006KT 10/M01 A2997 RMK A01 T00971006  RH  049%=      5-min Rain = 0
KKN1 130915Z 16006KT 10/M01 A2997 RMK A01 T00951005  RH  050%=      5-min Rain = 0
KKN1 130920Z 16007KT 09/M00 A2997 RMK A01 T00911004  RH  052%=      5-min Rain = 0
KKN1 130925Z 16008KT 09/M00 A2997 RMK A01 T00901003  RH  053%=      5-min Rain = 0
KKN1 130930Z 16008KT 09/M00 A2997 RMK A01 T00911002  RH  053%=      5-min Rain = 0
KKN1 130935Z 16007KT 09/M00 A2997 RMK A01 T00931001  RH  053%=      5-min Rain = 0
KKN1 130940Z 16006KT 10/M00 A2997 RMK A01 T00971001  RH  051%=      5-min Rain = 0
KKN1 130945Z 15006KT 10/M00 A2997 RMK A01 T01021001  RH  049%=      5-min Rain = 0
KKN1 130950Z 15006KT 10/M00 A2997 RMK A01 T01021001  RH  049%=      5-min Rain = 0
KKN1 130955Z 16008KT 10/00 A2997 RMK A01 T010200-0  RH  050%=      5-min Rain = 0
KKN1 131000Z 16008KT 10/00 A2997 RMK A01 T01020001  RH  050%=      5-min Rain = 0
KKN1 131005Z 15006KT 10/00 A2997 RMK A01 T01020002  RH  050%=      5-min Rain = 0
KKN1 131010Z 16006KT 10/00 A2997 RMK A01 T01010002  RH  051%=      5-min Rain = 0
KKN1 131015Z 15006KT 10/00 A2997 RMK A01 T01010002  RH  051%=      5-min Rain = 0
KKN1 131020Z 15007KT 10/00 A2997 RMK A01 T01020001  RH  050%=      5-min Rain = 0
KKN1 131025Z 15008KT 10/00 A2997 RMK A01 T01020001  RH  050%=      5-min Rain = 0
KKN1 131030Z 15009KT 11/00 A2997 RMK A01 T01060001  RH  049%=      5-min Rain = 0
KKN1 131035Z 15008KT 11/00 A2997 RMK A01 T01060001  RH  049%=      5-min Rain = 0
KKN1 131040Z 15008KT 11/00 A2997 RMK A01 T01070001  RH  049%=      5-min Rain = 0
KKN1 131045Z 15009KT 11/00 A2997 RMK A01 T01080002  RH  048%=      5-min Rain = 0
KKN1 131050Z 16008KT 11/00 A2997 RMK A01 T01090002  RH  048%=      5-min Rain = 0
KKN1 131055Z 16008KT 11/00 A2997 RMK A01 T01080003  RH  049%=      5-min Rain = 0
KKN1 131100Z 15009KT 11/00 A2997 RMK A01 T01080003  RH  049%=      5-min Rain = 0
KKN1 131105Z 15009KT 11/00 A2997 RMK A01 T01070003  RH  049%=      5-min Rain = 0
KKN1 131110Z 16009KT 11/00 A2997 RMK A01 T01060004  RH  050%=      5-min Rain = 0
KKN1 131115Z 15009KT 11/00 A2997 RMK A01 T01050004  RH  050%=      5-min Rain = 0
KKN1 131120Z 15009KT 11/01 A2997 RMK A01 T01050005  RH  050%=      5-min Rain = 0
KKN1 131125Z 15009KT 11/01 A2997 RMK A01 T01050006  RH  051%=      5-min Rain = 0
KKN1 131130Z 15009KT 11/01 A2998 RMK A01 T01060007  RH  051%=      5-min Rain = 0
KKN1 131135Z 15009KT 11/01 A2998 RMK A01 T01050008  RH  052%=      5-min Rain = 0
KKN1 131140Z 15009KT 10/01 A2998 RMK A01 T01040008  RH  052%=      5-min Rain = 0
KKN1 131145Z 15010KT 10/01 A2998 RMK A01 T01040009  RH  052%=      5-min Rain = 0
KKN1 131150Z 15009KT 10/01 A2998 RMK A01 T01030009  RH  053%=      5-min Rain = 0
KKN1 131155Z 15009KT 10/01 A2998 RMK A01 T01010009  RH  054%=      5-min Rain = 0
KKN1 131200Z 15009KT 10/01 A2998 RMK A01 T01000010  RH  054%=      5-min Rain = 0
KKN1 131205Z 16009KT 10/01 A2998 RMK A01 T01010011  RH  054%=      5-min Rain = 0
KKN1 131210Z 16010KT 10/01 A2998 RMK A01 T01010011  RH  055%=      5-min Rain = 0
KKN1 131215Z 16009KT 10/01 A2998 RMK A01 T01000012  RH  055%=      5-min Rain = 0
KKN1 131220Z 16008KT 10/01 A2998 RMK A01 T01000012  RH  055%=      5-min Rain = 0
KKN1 131225Z 16008KT 10/01 A2998 RMK A01 T00990012  RH  056%=      5-min Rain = 0
KKN1 131230Z 16008KT 10/01 A2998 RMK A01 T00980013  RH  056%=      5-min Rain = 0
KKN1 131235Z 16008KT 10/01 A2998 RMK A01 T00980014  RH  057%=      5-min Rain = 0
KKN1 131240Z 16009KT 10/02 A2998 RMK A01 T00980015  RH  057%=      5-min Rain = 0
KKN1 131245Z 16009KT 10/02 A2998 RMK A01 T00990015  RH  057%=      5-min Rain = 0
KKN1 131250Z 16009KT 10/02 A2998 RMK A01 T00980016  RH  057%=      5-min Rain = 0
KKN1 131255Z 17010KT 10/02 A2998 RMK A01 T00990017  RH  057%=      5-min Rain = 0
KKN1 131300Z 17010KT 10/02 A2998 RMK A01 T01000018  RH  057%=      5-min Rain = 0
KKN1 131305Z 17010KT 10/02 A2998 RMK A01 T01020019  RH  057%=      5-min Rain = 0
KKN1 131310Z 17010KT 10/02 A2998 RMK A01 T01040021  RH  057%=      5-min Rain = 0
KKN1 131315Z 17010KT 11/02 A2998 RMK A01 T01060022  RH  057%=      5-min Rain = 0
KKN1 131320Z 17008KT 11/02 A2998 RMK A01 T01080023  RH  056%=      5-min Rain = 0
KKN1 131325Z 17008KT 11/02 A2999 RMK A01 T01110024  RH  056%=      5-min Rain = 0
KKN1 131330Z 17007KT 12/03 A2999 RMK A01 T01150025  RH  055%=      5-min Rain = 0
KKN1 131335Z 18008KT 12/03 A2999 RMK A01 T01200026  RH  053%=      5-min Rain = 0
KKN1 131340Z 18007KT 13/03 A2999 RMK A01 T01250027  RH  052%=      5-min Rain = 0
KKN1 131345Z 18007KT 13/03 A2999 RMK A01 T01300027  RH  050%=      5-min Rain = 0
KKN1 131350Z 19008KT 14/03 A2999 RMK A01 T01350026  RH  048%=      5-min Rain = 0
KKN1 131355Z 19009KT 14/03 A2999 RMK A01 T01390026  RH  047%=      5-min Rain = 0
KKN1 131400Z 19009KT 14/03 A2999 RMK A01 T01430026  RH  046%=      5-min Rain = 0
KKN1 131405Z 19009KT 15/03 A2999 RMK A01 T01480026  RH  045%=      5-min Rain = 0
KKN1 131410Z 19010KT 15/03 A2999 RMK A01 T01500025  RH  044%=      5-min Rain = 0
KKN1 131415Z 19010KT 15/03 A2999 RMK A01 T01530026  RH  043%=      5-min Rain = 0
KKN1 131420Z 20010KT 16/03 A2999 RMK A01 T01580027  RH  042%=      5-min Rain = 0
KKN1 131425Z 19011KT 16/03 A2999 RMK A01 T01580027  RH  042%=      5-min Rain = 0
KKN1 131430Z 20011KT 16/03 A30 RMK A01 T01610027  RH  041%=      5-min Rain = 0
KKN1 131435Z 20012KT 16/03 A30 RMK A01 T01640027  RH  040%=      5-min Rain = 0
KKN1 131440Z 20011KT 17/03 A30 RMK A01 T01680027  RH  039%=      5-min Rain = 0
KKN1 131445Z 20012KT 17/03 A30 RMK A01 T01690027  RH  039%=      5-min Rain = 0
KKN1 131450Z 20011KT 17/03 A2999 RMK A01 T01720027  RH  038%=      5-min Rain = 0
KKN1 131455Z 21011KT 18/03 A30 RMK A01 T01780025  RH  037%=      5-min Rain = 0
KKN1 131500Z 21012KT 18/02 A30 RMK A01 T01790024  RH  036%=      5-min Rain = 0
KKN1 131505Z 21013KT 18/02 A30 RMK A01 T01800024  RH  036%=      5-min Rain = 0
KKN1 131510Z 21013KT 18/02 A30 RMK A01 T01810024  RH  036%=      5-min Rain = 0
KKN1 131515Z 21011KT 18/03 A30 RMK A01 T01840027  RH  036%=      5-min Rain = 0
KKN1 131520Z 21013KT 18/03 A30 RMK A01 T01830026  RH  036%=      5-min Rain = 0
KKN1 131525Z 21012G17KT 18/03 A2999 RMK A01 T01840029  RH  036%=      5-min Rain = 0
KKN1 131530Z 21013KT 18/03 A2999 RMK A01 T01840029  RH  036%=      5-min Rain = 0
KKN1 131535Z 20012KT 19/03 A2999 RMK A01 T01870028  RH  035%=      5-min Rain = 0
KKN1 131540Z 21011KT 19/03 A2999 RMK A01 T01910031  RH  035%=      5-min Rain = 0
KKN1 131545Z 20012KT 20/03 A2999 RMK A01 T01950031  RH  034%=      5-min Rain = 0
KKN1 131550Z 21012KT 20/03 A2999 RMK A01 T01970031  RH  034%=      5-min Rain = 0
KKN1 131555Z 20013KT 20/03 A2999 RMK A01 T01950030  RH  034%=      5-min Rain = 0
KKN1 131600Z 21012KT 20/03 A2999 RMK A01 T01970031  RH  034%=      5-min Rain = 0
KKN1 131605Z 20011KT 20/03 A2999 RMK A01 T01990032  RH  034%=      5-min Rain = 0
KKN1 131610Z 21011G16KT 20/03 A2999 RMK A01 T02000034  RH  034%=      5-min Rain = 0
KKN1 131615Z 20010KT 20/04 A2999 RMK A01 T02030035  RH  033%=      5-min Rain = 0
KKN1 131620Z 20012KT 21/04 A2998 RMK A01 T02050035  RH  033%=      5-min Rain = 0
KKN1 131625Z 21010G15KT 21/04 A2998 RMK A01 T02090035  RH  032%=      5-min Rain = 0
KKN1 131630Z 21009KT 21/04 A2998 RMK A01 T02110039  RH  033%=      5-min Rain = 0
KKN1 131635Z 20011KT 22/04 A2998 RMK A01 T02150038  RH  032%=      5-min Rain = 0
KKN1 131640Z 20011KT 22/04 A2998 RMK A01 T02150038  RH  032%=      5-min Rain = 0
KKN1 131645Z 19012KT 22/04 A2998 RMK A01 T02180038  RH  031%=      5-min Rain = 0
KKN1 131650Z 21011G16KT 22/04 A2998 RMK A01 T02200040  RH  031%=      5-min Rain = 0
KKN1 131655Z 21010KT 22/04 A2997 RMK A01 T02230043  RH  031%=      5-min Rain = 0
KKN1 131700Z 20009KT 23/04 A2997 RMK A01 T02270042  RH  031%=      5-min Rain = 0
KKN1 131705Z 21009G14KT 23/04 A2997 RMK A01 T02320042  RH  030%=      5-min Rain = 0
KKN1 131710Z 21008KT 23/04 A2997 RMK A01 T02340044  RH  030%=      5-min Rain = 0
KKN1 131715Z 20009KT 24/04 A2997 RMK A01 T02370044  RH  029%=      5-min Rain = 0
KKN1 131720Z 20010G15KT 24/04 A2997 RMK A01 T02380044  RH  029%=      5-min Rain = 0
KKN1 131725Z 20009KT 24/04 A2996 RMK A01 T02350044  RH  029%=      5-min Rain = 0
KKN1 131730Z 20008KT 24/05 A2996 RMK A01 T02410048  RH  029%=      5-min Rain = 0
KKN1 131735Z 22009G14KT 24/05 A2996 RMK A01 T02440048  RH  029%=      5-min Rain = 0
KKN1 131740Z 21009KT 24/05 A2996 RMK A01 T02400049  RH  030%=      5-min Rain = 0
KKN1 131745Z 22009KT 25/05 A2996 RMK A01 T02450049  RH  029%=      5-min Rain = 0
KKN1 131750Z 21008KT 25/05 A2996 RMK A01 T02480052  RH  029%=      5-min Rain = 0
KKN1 131755Z 22006KT 25/05 A2995 RMK A01 T02480051  RH  029%=      5-min Rain = 0
KKN1 131800Z 20008KT 25/05 A2995 RMK A01 T02500053  RH  029%=      5-min Rain = 0
KKN1 131805Z 22008KT 25/05 A2995 RMK A01 T02540054  RH  028%=      5-min Rain = 0
KKN1 131810Z 21008G13KT 26/06 A2995 RMK A01 T02580057  RH  028%=      5-min Rain = 0
KKN1 131815Z 22006KT 26/05 A2994 RMK A01 T02560053  RH  028%=      5-min Rain = 0
KKN1 131820Z 21006G11KT 26/06 A2994 RMK A01 T02580056  RH  028%=      5-min Rain = 0
KKN1 131825Z 18007KT 26/05 A2994 RMK A01 T02630054  RH  027%=      5-min Rain = 0
KKN1 131830Z 18009KT 27/06 A2994 RMK A01 T02650055  RH  027%=      5-min Rain = 0
KKN1 131835Z 19008KT 27/06 A2994 RMK A01 T02660056  RH  027%=      5-min Rain = 0
KKN1 131840Z 19007KT 27/06 A2993 RMK A01 T02700058  RH  027%=      5-min Rain = 0
KKN1 131845Z 20007KT 27/06 A2993 RMK A01 T02740059  RH  026%=      5-min Rain = 0
KKN1 131850Z 20007KT 27/06 A2993 RMK A01 T02720058  RH  026%=      5-min Rain = 0
KKN1 131855Z 17006KT 27/06 A2993 RMK A01 T02730058  RH  026%=      5-min Rain = 0
KKN1 131900Z 23006G11KT 28/06 A2992 RMK A01 T02780061  RH  026%=      5-min Rain = 0
KKN1 131905Z 22007KT 28/06 A2992 RMK A01 T02780061  RH  026%=      5-min Rain = 0
KKN1 131910Z 22008KT 28/06 A2992 RMK A01 T02770060  RH  026%=      5-min Rain = 0
KKN1 131915Z 22008G15KT 28/06 A2991 RMK A01 T02800062  RH  026%=      5-min Rain = 0
KKN1 131920Z 23008KT 28/06 A2991 RMK A01 T02820062  RH  025%=      5-min Rain = 0
KKN1 131925Z 20009KT 29/06 A2991 RMK A01 T02850061  RH  025%=      5-min Rain = 0
KKN1 131930Z 18009KT 29/06 A299 RMK A01 T02860062  RH  025%=      5-min Rain = 0
KKN1 131935Z 18009G17KT 29/06 A299 RMK A01 T02910063  RH  024%=      5-min Rain = 0
KKN1 131940Z 20012KT 29/06 A299 RMK A01 T02890061  RH  024%=      5-min Rain = 0
KKN1 131945Z 19009G14KT 29/06 A299 RMK A01 T02870061  RH  024%=      5-min Rain = 0
KKN1 131950Z 18008G14KT 29/06 A299 RMK A01 T02870062  RH  025%=      5-min Rain = 0
KKN1 131955Z 19010KT 29/06 A299 RMK A01 T02890061  RH  024%=      5-min Rain = 0
KKN1 132000Z 20010G15KT 29/06 A2989 RMK A01 T02940064  RH  024%=      5-min Rain = 0
KKN1 132005Z 20009G14KT 29/07 A2989 RMK A01 T02940065  RH  024%=      5-min Rain = 0
KKN1 132010Z 18011KT 29/06 A2989 RMK A01 T02940063  RH  024%=      5-min Rain = 0
KKN1 132015Z 19009KT 30/07 A2989 RMK A01 T02950065  RH  024%=      5-min Rain = 0
KKN1 132020Z 19011G16KT 29/06 A2988 RMK A01 T02940064  RH  024%=      5-min Rain = 0
KKN1 132025Z 20010KT 30/07 A2988 RMK A01 T02950066  RH  024%=      5-min Rain = 0
KKN1 132030Z 17011G16KT 30/06 A2988 RMK A01 T02980064  RH  024%=      5-min Rain = 0
KKN1 132035Z 19009G14KT 30/07 A2988 RMK A01 T02990065  RH  023%=      5-min Rain = 0
KKN1 132040Z 20011KT 30/07 A2988 RMK A01 T03000065  RH  023%=      5-min Rain = 0
KKN1 132045Z 19010KT 30/07 A2988 RMK A01 T03000066  RH  024%=      5-min Rain = 0
KKN1 132050Z 19011KT 30/07 A2988 RMK A01 T03000065  RH  023%=      5-min Rain = 0
KKN1 132055Z 18010G15KT 30/07 A2988 RMK A01 T03000065  RH  023%=      5-min Rain = 0
KKN1 132100Z 19010G15KT 30/07 A2987 RMK A01 T03030066  RH  023%=      5-min Rain = 0
KKN1 132105Z 20011KT 30/07 A2987 RMK A01 T03020066  RH  023%=      5-min Rain = 0
KKN1 132110Z 20009G14KT 30/07 A2987 RMK A01 T03010066  RH  023%=      5-min Rain = 0
KKN1 132115Z 18010KT 30/06 A2987 RMK A01 T03030064  RH  023%=      5-min Rain = 0
KKN1 132120Z 17011KT 30/06 A2987 RMK A01 T03040064  RH  023%=      5-min Rain = 0
KKN1 132125Z 17010KT 31/07 A2987 RMK A01 T03060065  RH  023%=      5-min Rain = 0
KKN1 132130Z 19010G16KT 31/07 A2987 RMK A01 T03070066  RH  023%=      5-min Rain = 0
KKN1 132135Z 19010KT 31/07 A2987 RMK A01 T03090066  RH  022%=      5-min Rain = 0
KKN1 132140Z 18011KT 31/06 A2987 RMK A01 T03070064  RH  022%=      5-min Rain = 0
KKN1 132145Z 18011KT 31/06 A2987 RMK A01 T03080064  RH  022%=      5-min Rain = 0
KKN1 132150Z 18011KT 31/06 A2987 RMK A01 T03070063  RH  022%=      5-min Rain = 0
KKN1 132155Z 18009KT 31/07 A2987 RMK A01 T03080065  RH  022%=      5-min Rain = 0
KKN1 132200Z 18010KT 31/06 A2987 RMK A01 T03090064  RH  022%=      5-min Rain = 0
KKN1 132205Z 19009KT 31/06 A2987 RMK A01 T03090064  RH  022%=      5-min Rain = 0
KKN1 132210Z 19010KT 31/06 A2987 RMK A01 T03080063  RH  022%=      5-min Rain = 0
KKN1 132215Z 18010KT 31/06 A2987 RMK A01 T03070063  RH  022%=      5-min Rain = 0
KKN1 132220Z 18011KT 31/06 A2986 RMK A01 T03090063  RH  022%=      5-min Rain = 0
KKN1 132225Z 19010KT 31/06 A2986 RMK A01 T03080063  RH  022%=      5-min Rain = 0
KKN1 132230Z 18010KT 31/06 A2986 RMK A01 T03080064  RH  022%=      5-min Rain = 0
KKN1 132235Z 19009KT 31/06 A2986 RMK A01 T03070063  RH  022%=      5-min Rain = 0
KKN1 132240Z 18010KT 31/06 A2986 RMK A01 T03070063  RH  022%=      5-min Rain = 0
KKN1 132245Z 19009KT 31/07 A2987 RMK A01 T03070066  RH  023%=      5-min Rain = 0
KKN1 132250Z 19010KT 31/07 A2987 RMK A01 T03080065  RH  022%=      5-min Rain = 0
KKN1 132255Z 19010KT 31/06 A2987 RMK A01 T03060063  RH  022%=      5-min Rain = 0
KKN1 132300Z 18010KT 31/06 A2987 RMK A01 T03060063  RH  022%=      5-min Rain = 0
KKN1 132305Z 19009KT 31/06 A2987 RMK A01 T03050064  RH  023%=      5-min Rain = 0
KKN1 132310Z 18009KT 30/06 A2987 RMK A01 T03040064  RH  023%=      5-min Rain = 0
KKN1 132315Z 18010KT 30/06 A2987 RMK A01 T03040063  RH  023%=      5-min Rain = 0
KKN1 132320Z 18010KT 30/06 A2987 RMK A01 T03030063  RH  023%=      5-min Rain = 0
KKN1 132325Z 19007KT 30/07 A2987 RMK A01 T03010065  RH  023%=      5-min Rain = 0
KKN1 132330Z 19007KT 30/07 A2987 RMK A01 T02980066  RH  024%=      5-min Rain = 0
KKN1 132335Z 19007KT 30/07 A2987 RMK A01 T02960066  RH  024%=      5-min Rain = 0
KKN1 132340Z 18006KT 29/07 A2987 RMK A01 T02930066  RH  025%=      5-min Rain = 0
KKN1 132345Z 18006KT 29/07 A2987 RMK A01 T02890066  RH  025%=      5-min Rain = 0
KKN1 132350Z 18006KT 29/07 A2987 RMK A01 T02850067  RH  026%=      5-min Rain = 0
KKN1 132355Z 19007KT 28/07 A2988 RMK A01 T02780068  RH  027%=      5-min Rain = 0
KKN1 140000Z 19006KT 27/07 A2988 RMK A01 T02700068  RH  028%=      5-min Rain = 0
KKN1 140005Z 18006KT 26/07 A2988 RMK A01 T02610065  RH  029%=      5-min Rain = 0
KKN1 140010Z 18006KT 25/07 A2988 RMK A01 T02520066  RH  031%=      5-min Rain = 0
KKN1 140015Z 17008KT 25/07 A2988 RMK A01 T02450067  RH  033%=      5-min Rain = 0
KKN1 140020Z 16008KT 24/07 A2988 RMK A01 T02390065  RH  033%=      5-min Rain = 0
KKN1 140025Z 16007KT 24/07 A2988 RMK A01 T02360065  RH  034%=      5-min Rain = 0
KKN1 140030Z 15007KT 23/06 A2989 RMK A01 T02300064  RH  035%=      5-min Rain = 0
KKN1 140035Z 14008KT 23/07 A2989 RMK A01 T02280065  RH  036%=      5-min Rain = 0
KKN1 140040Z 14010KT 23/07 A2989 RMK A01 T02260067  RH  037%=      5-min Rain = 0
KKN1 140045Z 14011KT 23/07 A2989 RMK A01 T02320069  RH  036%=      5-min Rain = 0
KKN1 140050Z 15011KT 24/07 A2989 RMK A01 T02380069  RH  035%=      5-min Rain = 0
KKN1 140055Z 15012KT 24/07 A2989 RMK A01 T02410069  RH  034%=      5-min Rain = 0
KKN1 140100Z 15012KT 24/07 A2989 RMK A01 T02410068  RH  034%=      5-min Rain = 0
KKN1 140105Z 15013KT 24/07 A2989 RMK A01 T02420069  RH  034%=      5-min Rain = 0
KKN1 140110Z 15012KT 24/07 A2989 RMK A01 T02400069  RH  034%=      5-min Rain = 0
KKN1 140115Z 15012KT 24/07 A2989 RMK A01 T02370069  RH  035%=      5-min Rain = 0
KKN1 140120Z 15012KT 23/07 A2989 RMK A01 T02340068  RH  035%=      5-min Rain = 0
KKN1 140125Z 15012KT 23/07 A2989 RMK A01 T02340067  RH  035%=      5-min Rain = 0
KKN1 140130Z 15012KT 23/07 A2989 RMK A01 T02340067  RH  035%=      5-min Rain = 0
KKN1 140135Z 16012KT 23/07 A2989 RMK A01 T02330067  RH  035%=      5-min Rain = 0
KKN1 140140Z 16011KT 23/07 A2989 RMK A01 T02290067  RH  036%=      5-min Rain = 0
KKN1 140145Z 16011KT 23/07 A2989 RMK A01 T02270067  RH  037%=      5-min Rain = 0
KKN1 140150Z 16011KT 23/07 A2989 RMK A01 T02270067  RH  037%=      5-min Rain = 0
KKN1 140155Z 16012KT 23/07 A2989 RMK A01 T02270068  RH  037%=      5-min Rain = 0
KKN1 140200Z 16013KT 23/07 A299 RMK A01 T02300068  RH  036%=      5-min Rain = 0
KKN1 140205Z 16012KT 23/07 A299 RMK A01 T02310069  RH  036%=      5-min Rain = 0
KKN1 140210Z 16012KT 23/07 A299 RMK A01 T02300069  RH  036%=      5-min Rain = 0
KKN1 140215Z 17012KT 23/07 A299 RMK A01 T02290069  RH  037%=      5-min Rain = 0
KKN1 140220Z 17012KT 23/07 A299 RMK A01 T02250070  RH  038%=      5-min Rain = 0
KKN1 140225Z 17012KT 22/07 A299 RMK A01 T02220070  RH  038%=      5-min Rain = 0
KKN1 140230Z 17012KT 22/07 A299 RMK A01 T02210070  RH  039%=      5-min Rain = 0
KKN1 140235Z 17012KT 22/07 A299 RMK A01 T02210070  RH  039%=      5-min Rain = 0
KKN1 140240Z 17011KT 22/07 A299 RMK A01 T02200071  RH  039%=      5-min Rain = 0
KKN1 140245Z 17011KT 22/07 A299 RMK A01 T02190071  RH  039%=      5-min Rain = 0
KKN1 140250Z 17012KT 22/07 A2989 RMK A01 T02190072  RH  040%=      5-min Rain = 0
KKN1 140255Z 17012KT 22/07 A2989 RMK A01 T02190072  RH  040%=      5-min Rain = 0
KKN1 140300Z 17012KT 22/07 A299 RMK A01 T02190072  RH  040%=      5-min Rain = 0
KKN1 140305Z 17012KT 22/07 A299 RMK A01 T02190073  RH  040%=      5-min Rain = 0
KKN1 140310Z 17012KT 22/07 A299 RMK A01 T02190073  RH  040%=      5-min Rain = 0
KKN1 140315Z 17012KT 22/07 A299 RMK A01 T02190073  RH  040%=      5-min Rain = 0
KKN1 140320Z 18011KT 22/07 A299 RMK A01 T02190073  RH  040%=      5-min Rain = 0
KKN1 140325Z 18011KT 22/07 A299 RMK A01 T02200073  RH  040%=      5-min Rain = 0
KKN1 140330Z 17010KT 22/07 A299 RMK A01 T02200074  RH  040%=      5-min Rain = 0
KKN1 140335Z 17011KT 22/07 A299 RMK A01 T02230074  RH  039%=      5-min Rain = 0
KKN1 140340Z 17012KT 23/07 A299 RMK A01 T02270074  RH  038%=      5-min Rain = 0
KKN1 140345Z 17013KT 23/07 A299 RMK A01 T02300074  RH  038%=      5-min Rain = 0
KKN1 140350Z 17012KT 23/07 A2991 RMK A01 T02300074  RH  038%=      5-min Rain = 0
KKN1 140355Z 18011KT 23/07 A2991 RMK A01 T02300074  RH  038%=      5-min Rain = 0
KKN1 140400Z 18011KT 23/07 A2991 RMK A01 T02310073  RH  037%=      5-min Rain = 0
KKN1 140405Z 17011KT 23/07 A2991 RMK A01 T02320073  RH  037%=      5-min Rain = 0
KKN1 140410Z 17011KT 23/07 A2991 RMK A01 T02290073  RH  038%=      5-min Rain = 0
KKN1 140415Z 18010KT 23/07 A2991 RMK A01 T02280073  RH  038%=      5-min Rain = 0
KKN1 140420Z 18009KT 23/07 A2991 RMK A01 T02250073  RH  039%=      5-min Rain = 0
KKN1 140425Z 19008KT 23/07 A2992 RMK A01 T02250073  RH  039%=      5-min Rain = 0
KKN1 140430Z 20010KT 23/07 A2992 RMK A01 T02260073  RH  038%=      5-min Rain = 0
KKN1 140435Z 19009KT 23/07 A2992 RMK A01 T02270074  RH  038%=      5-min Rain = 0
KKN1 140440Z 20008KT 23/08 A2992 RMK A01 T02250075  RH  039%=      5-min Rain = 0
KKN1 140445Z 19008KT 22/08 A2992 RMK A01 T02230075  RH  040%=      5-min Rain = 0
KKN1 140450Z 19007KT 22/08 A2992 RMK A01 T02210076  RH  040%=      5-min Rain = 0
KKN1 140455Z 20009KT 22/08 A2992 RMK A01 T02200076  RH  041%=      5-min Rain = 0

Page generated in 0.0439 seconds.